Time;durP1;ratioP1;P1;durP2;ratioP2;P2;SDS_P1;SDS_P2;PMS_P1;PMS_P2;Temp;Humidity;BMP_temperature;BMP_pressure;BME280_temperature;BME280_humidity;BME280_pressure;Samples;Min_cycle;Max_cycle;Signal;HPM_P1;HPM_P2
2021/08/16 00:00:26;;;;;;;;;;;;;;;20.16;81.57;96493.41;30001;983;1862;-66
2021/08/16 00:00:57;;;;;;;;;;;;;;;20.17;81.77;96492.25;30001;983;1871;-66
2021/08/16 00:01:28;;;;;;;;;;;;;;;20.18;81.73;96491.06;30001;983;1880;-67
2021/08/16 00:01:58;;;;;;;;;;;;;;;20.21;81.46;96495.06;30001;983;1875;-66
2021/08/16 00:02:29;;;;;;;;;;;;;;;20.22;81.12;96491.16;30001;983;1880;-67
2021/08/16 00:03:00;;;;;;;;;;;;;;;20.26;80.83;96492.00;30001;983;1876;-66
2021/08/16 00:03:31;;;;;;;;;;;;;;;20.26;81.06;96490.06;30001;983;1862;-66
2021/08/16 00:04:01;;;;;;;;;;;;;;;20.27;81.22;96496.38;30001;982;1872;-64
2021/08/16 00:04:32;;;;;;;;;;;;;;;20.27;81.24;96497.16;30001;982;1863;-65
2021/08/16 00:05:04;;;;;;;;;;;;;;;20.28;80.92;96484.19;30001;982;1872;-65
2021/08/16 00:05:35;;;;;;;;;;;;;;;20.28;80.94;96489.69;30001;982;1881;-67
2021/08/16 00:06:05;;;;;;;;;;;;;;;20.28;80.98;96490.50;30001;982;1859;-65
2021/08/16 00:06:36;;;;;;;;;;;;;;;20.29;81.00;96494.03;30001;983;1875;-65
2021/08/16 00:07:10;;;;;;;;;;;;;;;20.29;81.13;96488.53;30001;983;1876;-66
2021/08/16 00:07:42;;;;;;;;;;;;;;;20.29;81.02;96480.28;30001;983;1880;-65
2021/08/16 00:08:12;;;;;;;;;;;;;;;20.30;80.89;96488.16;30001;983;1875;-66
2021/08/16 00:08:44;;;;;;;;;;;;;;;20.32;80.91;96491.34;30001;983;1880;-66
2021/08/16 00:09:15;;;;;;;;;;;;;;;20.34;80.90;96491.00;30001;983;1876;-65
2021/08/16 00:09:46;;;;;;;;;;;;;;;20.32;80.87;96491.34;30001;983;1880;-65
2021/08/16 00:10:17;;;;;;;;;;;;;;;20.36;80.48;96494.97;30002;983;1802;-65
2021/08/16 00:10:48;;;;;;;;;;;;;;;20.36;80.38;96491.44;30001;983;1880;-65
2021/08/16 00:11:21;;;;;;;;;;;;;;;20.36;80.53;96488.66;30001;982;1858;-65
2021/08/16 00:11:52;;;;;;;;;;;;;;;20.36;80.53;96489.47;30001;982;1876;-66
2021/08/16 00:12:23;;;;;;;;;;;;;;;20.36;80.68;96491.44;30001;982;1876;-66
2021/08/16 00:12:54;;;;;;;;;;;;;;;20.35;80.46;96493.38;30001;982;1880;-65
2021/08/16 00:13:25;;;;;;;;;;;;;;;20.39;80.32;96496.25;30001;982;1876;-67
2021/08/16 00:13:56;;;;;;;;;;;;;;;20.40;80.38;96484.06;30001;983;1880;-63
2021/08/16 00:14:27;;;;;;;;;;;;;;;20.45;79.81;96500.25;30001;983;1875;-67
2021/08/16 00:14:58;;;;;;;;;;;;;;;20.46;79.81;96490.03;30001;983;1880;-65
2021/08/16 00:15:29;;;;;;;;;;;;;;;20.46;80.01;96495.53;30001;983;1858;-66
2021/08/16 00:16:01;;;;;;;;;;;;;;;20.47;79.77;96489.66;30001;983;1875;-66
2021/08/16 00:16:35;;;;;;;;;;;;;;;20.47;79.93;96486.91;30001;983;1876;-67
2021/08/16 00:17:06;;;;;;;;;;;;;;;20.51;79.57;96498.00;30001;983;1880;-66
2021/08/16 00:17:37;;;;;;;;;;;;;;;20.49;79.77;96490.09;30002;969;1791;-66
2021/08/16 00:18:08;;;;;;;;;;;;;;;20.49;79.94;96494.81;30001;983;1863;-64
2021/08/16 00:18:39;;;;;;;;;;;;;;;20.48;79.97;96494.03;30001;983;1871;-66
2021/08/16 00:19:10;;;;;;;;;;;;;;;20.47;80.23;96492.44;30001;982;1880;-66
2021/08/16 00:19:41;;;;;;;;;;;;;;;20.47;79.94;96492.44;30001;972;1896;-66
2021/08/16 00:20:15;;;;;;;;;;;;;;;20.47;80.08;96488.88;30001;982;1880;-64
2021/08/16 00:20:46;;;;;;;;;;;;;;;20.46;80.44;96488.06;30001;982;1876;-65
2021/08/16 00:21:17;;;;;;;;;;;;;;;20.45;80.07;96483.72;30001;982;1881;-64
2021/08/16 00:21:48;;;;;;;;;;;;;;;20.47;79.73;96488.88;30001;983;1858;-65
2021/08/16 00:22:19;;;;;;;;;;;;;;;20.47;79.67;96486.91;30001;983;1875;-64
2021/08/16 00:22:50;;;;;;;;;;;;;;;20.49;79.58;96484.59;30001;983;1876;-69
2021/08/16 00:23:21;;;;;;;;;;;;;;;20.53;79.04;96490.97;30001;983;1880;-64
2021/08/16 00:23:52;;;;;;;;;;;;;;;20.52;79.42;96478.34;30001;983;1876;-65
2021/08/16 00:24:23;;;;;;;;;;;;;;;20.54;79.62;96486.25;30001;983;1880;-66
2021/08/16 00:24:54;;;;;;;;;;;;;;;20.54;79.70;96480.75;30001;983;1876;-65
2021/08/16 00:25:24;;;;;;;;;;;;;;;20.53;79.40;96479.94;30001;983;1880;-66
2021/08/16 00:25:55;;;;;;;;;;;;;;;20.51;79.74;96479.50;30001;983;1858;-67
2021/08/16 00:26:28;;;;;;;;;;;;;;;20.51;79.76;96482.25;30001;982;1876;-66
2021/08/16 00:26:59;;;;;;;;;;;;;;;20.50;80.00;96483.44;30001;982;1876;-66
2021/08/16 00:27:32;;;;;;;;;;;;;;;20.52;79.65;96478.34;30001;982;1880;-66
2021/08/16 00:28:04;;;;;;;;;;;;;;;20.54;79.57;96481.53;30001;982;1876;-66
2021/08/16 00:28:34;;;;;;;;;;;;;;;20.54;79.31;96481.53;30001;982;1881;-66
2021/08/16 00:29:05;;;;;;;;;;;;;;;20.54;79.42;96478.78;30001;983;1858;-67
2021/08/16 00:29:38;;;;;;;;;;;;;;;20.55;79.44;96472.09;30001;983;1875;-65
2021/08/16 00:30:09;;;;;;;;;;;;;;;20.55;79.46;96476.81;30001;983;1876;-65
2021/08/16 00:30:40;;;;;;;;;;;;;;;20.56;79.35;96473.69;30001;983;1880;-72
2021/08/16 00:31:11;;;;;;;;;;;;;;;20.56;79.23;96473.69;30001;983;1876;-68
2021/08/16 00:31:42;;;;;;;;;;;;;;;20.57;78.89;96469.78;30001;983;1880;-65
2021/08/16 00:32:13;;;;;;;;;;;;;;;20.56;79.12;96468.19;30001;983;1876;-66
2021/08/16 00:32:44;;;;;;;;;;;;;;;20.55;79.21;96469.34;30001;983;1863;-67
2021/08/16 00:33:15;;;;;;;;;;;;;;;20.55;79.36;96461.06;30001;982;1871;-66
2021/08/16 00:33:46;;;;;;;;;;;;;;;20.54;79.59;96465.00;30001;982;1880;-67
2021/08/16 00:34:17;;;;;;;;;;;;;;;20.55;79.48;96466.59;30001;982;1876;-65
2021/08/16 00:34:48;;;;;;;;;;;;;;;20.56;79.22;96468.19;30001;982;1880;-68
2021/08/16 00:35:19;;;;;;;;;;;;;;;20.59;79.27;96464.69;30001;982;1876;-67
2021/08/16 00:35:49;;;;;;;;;;;;;;;20.58;79.14;96463.09;30001;982;1880;-65
2021/08/16 00:36:20;;;;;;;;;;;;;;;20.57;79.19;96468.97;30001;982;1859;-66
2021/08/16 00:36:52;;;;;;;;;;;;;;;20.57;79.20;96463.47;30001;983;1875;-66
2021/08/16 00:37:22;;;;;;;;;;;;;;;20.56;79.34;96468.19;30001;983;1876;-66
2021/08/16 00:37:53;;;;;;;;;;;;;;;20.55;79.50;96469.34;30001;983;1880;-66
2021/08/16 00:38:24;;;;;;;;;;;;;;;20.56;79.62;96468.19;30001;983;1876;-65
2021/08/16 00:38:56;;;;;;;;;;;;;;;20.55;79.22;96463.03;30001;983;1880;-65
2021/08/16 00:39:27;;;;;;;;;;;;;;;20.53;79.55;96463.41;30001;983;1876;-66
2021/08/16 00:39:58;;;;;;;;;;;;;;;20.55;79.28;96455.56;30001;983;1880;-66
2021/08/16 00:40:29;;;;;;;;;;;;;;;20.53;79.54;96462.59;30001;983;1876;-70
2021/08/16 00:41:01;;;;;;;;;;;;;;;20.59;79.25;96461.12;30001;982;1880;-63
2021/08/16 00:41:32;;;;;;;;;;;;;;;20.64;78.89;96460.84;30001;982;1858;-65
2021/08/16 00:42:05;;;;;;;;;;;;;;;20.61;79.10;96462.38;30001;982;1876;-66
2021/08/16 00:42:36;;;;;;;;;;;;;;;20.61;79.12;96467.88;30001;982;1876;-66
2021/08/16 00:43:07;;;;;;;;;;;;;;;20.61;78.81;96456.84;30001;982;1880;-66
2021/08/16 00:43:39;;;;;;;;;;;;;;;20.61;78.91;96465.13;30001;982;1876;-66
2021/08/16 00:44:10;;;;;;;;;;;;;;;20.59;78.88;96461.94;30001;983;1880;-65
2021/08/16 00:44:41;;;;;;;;;;;;;;;20.58;79.26;96457.59;30001;983;1876;-65
2021/08/16 00:45:12;;;;;;;;;;;;;;;20.58;79.33;96465.06;30001;983;1862;-65
2021/08/16 00:45:45;;;;;;;;;;;;;;;20.60;79.40;96455.25;30001;983;1871;-69
2021/08/16 00:46:19;;;;;;;;;;;;;;;20.61;79.02;96458.81;30001;983;1880;-62
2021/08/16 00:46:50;;;;;;;;;;;;;;;20.64;78.69;96452.56;30001;983;1876;-65
2021/08/16 00:47:22;;;;;;;;;;;;;;;20.63;78.54;96450.97;30001;983;1880;-64
2021/08/16 00:47:53;;;;;;;;;;;;;;;20.62;78.84;96450.19;30001;983;1858;-66
2021/08/16 00:48:24;;;;;;;;;;;;;;;20.60;78.87;96458.03;30001;982;1858;-66
2021/08/16 00:48:55;;;;;;;;;;;;;;;20.59;78.90;96450.91;30001;982;1858;-63
2021/08/16 00:49:26;;;;;;;;;;;;;;;20.62;78.97;96450.19;30001;982;1776;-65
2021/08/16 00:49:56;;;;;;;;;;;;;;;20.62;78.80;96444.66;30001;982;1876;-66
2021/08/16 00:50:28;;;;;;;;;;;;;;;20.63;78.86;96445.47;30001;982;1881;-65
2021/08/16 00:51:00;;;;;;;;;;;;;;;20.62;78.67;96444.66;30001;983;1775;-65
2021/08/16 00:51:33;;;;;;;;;;;;;;;20.62;78.80;96443.88;30001;983;1879;-65
2021/08/16 00:52:06;;;;;;;;;;;;;;;20.61;79.10;96443.06;30001;983;1875;-67
2021/08/16 00:52:38;;;;;;;;;;;;;;;20.62;78.77;96447.41;30001;983;1880;-65
2021/08/16 00:53:09;;;;;;;;;;;;;;;20.61;78.79;96453.31;30001;983;1858;-66
2021/08/16 00:53:40;;;;;;;;;;;;;;;20.60;78.86;96447.00;30001;983;1876;-65
2021/08/16 00:54:11;;;;;;;;;;;;;;;20.60;78.91;96458.03;30001;983;1876;-66
2021/08/16 00:54:42;;;;;;;;;;;;;;;20.59;78.81;96459.19;30001;983;1880;-67
2021/08/16 00:55:13;;;;;;;;;;;;;;;20.58;78.96;96454.84;30001;983;1775;-65
2021/08/16 00:55:44;;;;;;;;;;;;;;;20.57;79.08;96458.75;30001;983;1862;-66
2021/08/16 00:56:16;;;;;;;;;;;;;;;20.59;79.03;96461.12;30001;982;1871;-63
2021/08/16 00:56:47;;;;;;;;;;;;;;;20.59;78.92;96461.94;30001;982;1881;-65
2021/08/16 00:57:18;;;;;;;;;;;;;;;20.59;79.08;96459.19;30001;982;1876;-66
2021/08/16 00:57:49;;;;;;;;;;;;;;;20.59;78.89;96456.44;30001;982;1880;-68
2021/08/16 00:58:20;;;;;;;;;;;;;;;20.61;78.55;96458.81;30001;983;1875;-68
2021/08/16 00:58:51;;;;;;;;;;;;;;;20.60;78.82;96457.22;30001;983;1880;-66
2021/08/16 00:59:22;;;;;;;;;;;;;;;20.59;78.89;96461.12;30001;983;1875;-65
2021/08/16 00:59:53;;;;;;;;;;;;;;;20.61;78.49;96461.56;30001;983;1880;-66
2021/08/16 01:00:24;;;;;;;;;;;;;;;20.60;78.39;96460.78;30001;983;1858;-67
2021/08/16 01:00:58;;;;;;;;;;;;;;;20.63;78.21;96454.53;30001;983;1876;-65
2021/08/16 01:01:29;;;;;;;;;;;;;;;20.62;78.23;96458.44;30001;983;1876;-66
2021/08/16 01:02:00;;;;;;;;;;;;;;;20.65;78.01;96465.97;30001;983;1863;-65
2021/08/16 01:02:32;;;;;;;;;;;;;;;20.65;78.05;96454.97;30001;983;1871;-66
2021/08/16 01:03:02;;;;;;;;;;;;;;;20.63;78.03;96457.28;30001;983;1880;-67
2021/08/16 01:03:33;;;;;;;;;;;;;;;20.62;78.31;96461.22;30001;982;1876;-65
2021/08/16 01:04:04;;;;;;;;;;;;;;;20.61;78.33;96464.34;30001;982;1880;-65
2021/08/16 01:04:35;;;;;;;;;;;;;;;20.60;78.50;96462.72;30001;982;1876;-67
2021/08/16 01:05:07;;;;;;;;;;;;;;;20.59;78.30;96456.44;30001;982;1880;-65
2021/08/16 01:05:38;;;;;;;;;;;;;;;20.59;78.37;96456.44;30001;986;1859;-66
2021/08/16 01:06:09;;;;;;;;;;;;;;;20.58;78.43;96460.34;30001;983;1875;-66
2021/08/16 01:06:40;;;;;;;;;;;;;;;20.57;78.67;96458.75;30001;983;1876;-66
2021/08/16 01:07:11;;;;;;;;;;;;;;;20.58;78.49;96454.03;30001;983;1880;-66
2021/08/16 01:07:44;;;;;;;;;;;;;;;20.56;78.54;96451.66;30001;983;1876;-65
2021/08/16 01:08:15;;;;;;;;;;;;;;;20.56;78.72;96457.16;30001;983;1880;-66
2021/08/16 01:08:47;;;;;;;;;;;;;;;20.56;78.83;96462.66;30001;983;1876;-65
2021/08/16 01:09:18;;;;;;;;;;;;;;;20.55;79.01;96449.25;30001;983;1880;-67
2021/08/16 01:09:48;;;;;;;;;;;;;;;20.55;78.78;96466.59;30001;983;1876;-66
2021/08/16 01:10:21;;;;;;;;;;;;;;;20.54;78.62;96459.47;30001;982;1880;-66
2021/08/16 01:10:53;;;;;;;;;;;;;;;20.56;78.48;96462.66;30001;982;1858;-66
2021/08/16 01:11:24;;;;;;;;;;;;;;;20.58;78.16;96465.84;30001;982;1876;-65
2021/08/16 01:11:55;;;;;;;;;;;;;;;20.58;78.17;96460.34;30001;982;1875;-67
2021/08/16 01:12:30;;;;;;;;;;;;;;;20.59;78.11;96466.66;30001;982;1880;-66
2021/08/16 01:13:02;;;;;;;;;;;;;;;20.57;78.22;96456.00;30001;982;1876;-65
2021/08/16 01:13:32;;;;;;;;;;;;;;;20.59;78.15;96461.94;30001;983;1880;-66
2021/08/16 01:14:04;;;;;;;;;;;;;;;20.59;78.22;96456.44;30001;983;1875;-66
2021/08/16 01:14:35;;;;;;;;;;;;;;;20.59;78.30;96467.44;30001;983;1880;-65
2021/08/16 01:15:08;;;;;;;;;;;;;;;20.58;78.53;96460.34;30001;983;1875;-65
2021/08/16 01:15:42;;;;;;;;;;;;;;;20.59;78.35;96467.44;30001;983;1880;-67
2021/08/16 01:16:14;;;;;;;;;;;;;;;20.58;78.27;96454.84;30001;983;1858;-66
2021/08/16 01:16:48;;;;;;;;;;;;;;;20.59;77.97;96467.44;30001;983;1876;-66
2021/08/16 01:17:19;;;;;;;;;;;;;;;20.59;78.27;96466.66;30001;983;1876;-65
2021/08/16 01:17:50;;;;;;;;;;;;;;;20.59;78.21;96466.66;30001;982;1880;-57
2021/08/16 01:18:20;;;;;;;;;;;;;;;20.67;77.67;96471.13;30001;982;1789;-69
2021/08/16 01:18:51;;;;;;;;;;;;;;;20.68;77.68;96476.28;30001;982;1881;-66
2021/08/16 01:19:22;;;;;;;;;;;;;;;20.70;77.66;96468.44;30001;982;1876;-67
2021/08/16 01:19:53;;;;;;;;;;;;;;;20.73;77.67;96467.69;30001;982;1864;-69
2021/08/16 01:20:24;;;;;;;;;;;;;;;20.73;77.68;96464.94;30001;982;1872;-66
2021/08/16 01:20:55;;;;;;;;;;;;;;;20.73;77.73;96461.38;30001;983;1880;-65
2021/08/16 01:21:26;;;;;;;;;;;;;;;20.71;77.75;96463.72;30001;983;1876;-66
2021/08/16 01:21:57;;;;;;;;;;;;;;;20.69;77.81;96461.34;30001;985;1889;-65
2021/08/16 01:22:28;;;;;;;;;;;;;;;20.67;78.25;96457.34;30001;983;1875;-65
2021/08/16 01:22:59;;;;;;;;;;;;;;;20.65;78.16;96465.97;30001;983;1880;-66
2021/08/16 01:23:30;;;;;;;;;;;;;;;20.64;78.36;96452.56;30001;983;1876;-65
2021/08/16 01:24:03;;;;;;;;;;;;;;;20.63;78.41;96460.03;30001;983;1862;-66
2021/08/16 01:24:34;;;;;;;;;;;;;;;20.61;78.52;96465.13;30001;983;1854;-67
2021/08/16 01:25:06;;;;;;;;;;;;;;;20.59;78.45;96456.44;30001;983;1880;-67
2021/08/16 01:25:37;;;;;;;;;;;;;;;20.58;78.65;96457.59;30001;982;1876;-67
2021/08/16 01:26:08;;;;;;;;;;;;;;;20.57;78.77;96456.00;30001;982;1881;-66
2021/08/16 01:26:39;;;;;;;;;;;;;;;20.54;78.94;96459.47;30001;982;1876;-65
2021/08/16 01:27:11;;;;;;;;;;;;;;;20.54;78.85;96464.19;30001;982;1880;-66
2021/08/16 01:27:43;;;;;;;;;;;;;;;20.52;79.05;96456.31;30001;982;1876;-68
2021/08/16 01:28:17;;;;;;;;;;;;;;;20.56;78.83;96454.41;30001;982;1881;-66
2021/08/16 01:28:48;;;;;;;;;;;;;;;20.54;78.86;96459.47;30001;983;1858;-66
2021/08/16 01:29:22;;;;;;;;;;;;;;;20.55;78.83;96460.28;30001;983;1858;-67
2021/08/16 01:29:54;;;;;;;;;;;;;;;20.52;78.98;96461.81;30001;983;1875;-65
2021/08/16 01:30:25;;;;;;;;;;;;;;;20.52;78.89;96461.81;30001;983;1880;-66
2021/08/16 01:30:58;;;;;;;;;;;;;;;20.50;79.26;96458.63;30001;983;1875;-66
2021/08/16 01:31:29;;;;;;;;;;;;;;;20.53;79.15;96466.16;30001;983;1863;-66
2021/08/16 01:32:00;;;;;;;;;;;;;;;20.52;79.25;96461.81;30001;983;1871;-65
2021/08/16 01:32:31;;;;;;;;;;;;;;;20.53;79.18;96473.63;30001;983;1863;-65
2021/08/16 01:33:02;;;;;;;;;;;;;;;20.54;78.81;96465.00;30001;982;1872;-66
2021/08/16 01:33:34;;;;;;;;;;;;;;;20.56;78.65;96467.38;30001;982;1880;-67
2021/08/16 01:34:05;;;;;;;;;;;;;;;20.55;79.05;96471.31;30001;982;1876;-66
2021/08/16 01:34:36;;;;;;;;;;;;;;;20.54;79.09;96461.44;30001;982;1881;-66
2021/08/16 01:35:09;;;;;;;;;;;;;;;20.53;79.18;96470.88;30001;982;1876;-65
2021/08/16 01:35:39;;;;;;;;;;;;;;;20.50;79.05;96468.84;30001;982;1881;-68
2021/08/16 01:36:10;;;;;;;;;;;;;;;20.50;79.13;96464.13;30001;972;1879;-65
2021/08/16 01:36:41;;;;;;;;;;;;;;;20.50;79.08;96463.34;30001;983;1876;-66
2021/08/16 01:37:12;;;;;;;;;;;;;;;20.48;79.25;96466.47;30001;983;1875;-66
2021/08/16 01:37:43;;;;;;;;;;;;;;;20.47;79.29;96462.13;30001;966;1897;-67
2021/08/16 01:38:14;;;;;;;;;;;;;;;20.46;79.42;96463.28;30001;983;1876;-67
2021/08/16 01:38:45;;;;;;;;;;;;;;;20.46;79.53;96460.53;30001;983;1880;-68
2021/08/16 01:39:16;;;;;;;;;;;;;;;20.43;79.67;96464.03;30001;983;1858;-66
2021/08/16 01:39:47;;;;;;;;;;;;;;;20.42;79.83;96467.94;30001;983;1876;-67
2021/08/16 01:40:17;;;;;;;;;;;;;;;20.40;79.89;96459.25;30001;982;1876;-67
2021/08/16 01:40:48;;;;;;;;;;;;;;;20.40;79.92;96459.25;30001;982;1880;-67
2021/08/16 01:41:19;;;;;;;;;;;;;;;20.37;80.05;96454.44;30001;982;1876;-66
2021/08/16 01:41:50;;;;;;;;;;;;;;;20.36;79.89;96452.84;30001;982;1880;-67
2021/08/16 01:42:21;;;;;;;;;;;;;;;20.34;80.30;96449.66;30001;982;1876;-67
2021/08/16 01:42:52;;;;;;;;;;;;;;;20.32;80.36;96452.00;30001;983;1880;-66
2021/08/16 01:43:23;;;;;;;;;;;;;;;20.30;80.34;96454.31;30001;983;1858;-67
2021/08/16 01:43:54;;;;;;;;;;;;;;;20.29;80.51;96453.50;30001;983;1876;-66
2021/08/16 01:44:25;;;;;;;;;;;;;;;20.27;80.59;96449.53;30001;983;1875;-65
2021/08/16 01:44:56;;;;;;;;;;;;;;;20.27;80.78;96455.03;30001;983;1880;-66
2021/08/16 01:45:30;;;;;;;;;;;;;;;20.25;80.87;96451.84;30001;983;1875;-67
2021/08/16 01:46:04;;;;;;;;;;;;;;;20.24;81.04;96455.78;30001;983;1863;-67
2021/08/16 01:46:34;;;;;;;;;;;;;;;20.24;80.94;96453.00;30001;983;1854;-66
2021/08/16 01:47:05;;;;;;;;;;;;;;;20.23;80.87;96456.94;30001;983;1880;-66
2021/08/16 01:47:36;;;;;;;;;;;;;;;20.23;81.11;96460.47;30001;983;1876;-65
2021/08/16 01:48:07;;;;;;;;;;;;;;;20.23;80.73;96456.94;30001;982;1880;-65
2021/08/16 01:48:38;;;;;;;;;;;;;;;20.21;80.87;96457.28;30001;982;1876;-67
2021/08/16 01:49:10;;;;;;;;;;;;;;;20.20;81.09;96450.19;30001;982;1863;-67
2021/08/16 01:49:41;;;;;;;;;;;;;;;20.20;80.83;96449.41;30001;982;1872;-66
2021/08/16 01:50:16;;;;;;;;;;;;;;;20.19;80.92;96448.59;30001;982;1880;-67
2021/08/16 01:50:47;;;;;;;;;;;;;;;20.20;81.06;96449.41;30001;983;1875;-67
2021/08/16 01:51:18;;;;;;;;;;;;;;;20.20;81.00;96450.19;30001;983;1880;-66
2021/08/16 01:51:49;;;;;;;;;;;;;;;20.21;80.97;96456.50;30001;983;1875;-66
2021/08/16 01:52:19;;;;;;;;;;;;;;;20.20;80.93;96449.41;30001;983;1880;-65
2021/08/16 01:52:51;;;;;;;;;;;;;;;20.20;80.93;96449.41;30001;983;1875;-66
2021/08/16 01:53:21;;;;;;;;;;;;;;;20.19;80.87;96450.56;30001;983;1880;-67
2021/08/16 01:53:52;;;;;;;;;;;;;;;20.17;81.22;96455.63;30001;985;1771;-66
2021/08/16 01:54:23;;;;;;;;;;;;;;;20.17;80.90;96461.12;30001;983;1863;-66
2021/08/16 01:54:56;;;;;;;;;;;;;;;20.16;81.20;96459.56;30001;983;1871;-67
2021/08/16 01:55:27;;;;;;;;;;;;;;;20.16;81.28;96459.56;30001;982;1880;-65
2021/08/16 01:55:58;;;;;;;;;;;;;;;20.15;81.36;96461.50;30001;982;1876;-65
2021/08/16 01:56:29;;;;;;;;;;;;;;;20.14;81.28;96461.88;30001;982;1881;-66
2021/08/16 01:57:00;;;;;;;;;;;;;;;20.14;81.18;96456.34;30001;982;1876;-66
2021/08/16 01:57:30;;;;;;;;;;;;;;;20.12;81.45;96459.47;30001;982;1881;-67
2021/08/16 01:58:02;;;;;;;;;;;;;;;20.13;81.34;96454.75;30001;983;1875;-67
2021/08/16 01:58:33;;;;;;;;;;;;;;;20.14;81.33;96454.41;30001;983;1880;-66
2021/08/16 01:59:04;;;;;;;;;;;;;;;20.14;81.51;96461.88;30001;983;1858;-66
2021/08/16 01:59:38;;;;;;;;;;;;;;;20.13;81.30;96461.06;30001;983;1875;-66
2021/08/16 02:00:10;;;;;;;;;;;;;;;20.12;81.38;96453.97;30001;983;1876;-66
2021/08/16 02:00:41;;;;;;;;;;;;;;;20.12;81.33;96458.69;30001;983;1880;-66
2021/08/16 02:01:12;;;;;;;;;;;;;;;20.13;81.25;96461.06;30001;983;1876;-66
2021/08/16 02:01:42;;;;;;;;;;;;;;;20.14;81.17;96467.38;30001;983;1880;-66
2021/08/16 02:02:13;;;;;;;;;;;;;;;20.13;81.32;96460.28;30001;983;1876;-65
2021/08/16 02:02:44;;;;;;;;;;;;;;;20.14;81.02;96456.34;30001;983;1880;-68
2021/08/16 02:03:15;;;;;;;;;;;;;;;20.15;81.27;96456.00;30001;982;1858;-65
2021/08/16 02:03:46;;;;;;;;;;;;;;;20.15;81.21;96458.75;30001;982;1876;-67
2021/08/16 02:04:17;;;;;;;;;;;;;;;20.15;81.01;96466.22;30001;969;1794;-66
2021/08/16 02:04:48;;;;;;;;;;;;;;;20.15;81.17;96463.47;30001;982;1880;-65
2021/08/16 02:05:19;;;;;;;;;;;;;;;20.15;80.92;96463.47;30001;982;1876;-67
2021/08/16 02:05:52;;;;;;;;;;;;;;;20.14;81.17;96461.88;30001;983;1880;-67
2021/08/16 02:06:23;;;;;;;;;;;;;;;20.13;81.63;96471.28;30001;983;1875;-66
2021/08/16 02:06:57;;;;;;;;;;;;;;;20.10;81.29;96461.78;30001;983;1880;-66
2021/08/16 02:07:27;;;;;;;;;;;;;;;20.09;81.68;96465.75;30001;983;1875;-66
2021/08/16 02:08:00;;;;;;;;;;;;;;;20.07;82.07;96463.34;30001;983;1880;-67
2021/08/16 02:08:31;;;;;;;;;;;;;;;20.06;82.49;96464.50;30001;983;1858;-66
2021/08/16 02:09:02;;;;;;;;;;;;;;;20.05;82.36;96460.16;30001;983;1876;-66
2021/08/16 02:09:33;;;;;;;;;;;;;;;20.04;82.27;96461.31;30001;983;1876;-65
2021/08/16 02:10:07;;;;;;;;;;;;;;;20.01;82.11;96462.06;30001;983;1880;-67
2021/08/16 02:10:39;;;;;;;;;;;;;;;20.04;81.98;96469.59;30001;982;1876;-66
2021/08/16 02:11:10;;;;;;;;;;;;;;;20.04;81.82;96458.56;30001;982;1880;-66
2021/08/16 02:11:41;;;;;;;;;;;;;;;20.06;81.90;96460.97;30001;982;1818;-67
2021/08/16 02:12:12;;;;;;;;;;;;;;;20.05;81.55;96460.16;30001;982;1881;-65
2021/08/16 02:12:43;;;;;;;;;;;;;;;20.05;81.93;96457.41;30001;982;1785;-65
2021/08/16 02:13:14;;;;;;;;;;;;;;;20.06;82.01;96466.47;30001;983;1880;-66
2021/08/16 02:13:45;;;;;;;;;;;;;;;20.05;81.82;96462.91;30001;983;1858;-66
2021/08/16 02:14:16;;;;;;;;;;;;;;;20.04;81.94;96464.09;30001;983;1875;-66
2021/08/16 02:14:47;;;;;;;;;;;;;;;20.04;81.96;96461.31;30001;983;1876;-65
2021/08/16 02:15:18;;;;;;;;;;;;;;;20.04;81.89;96463.28;30001;983;1880;-67
2021/08/16 02:15:49;;;;;;;;;;;;;;;20.03;81.70;96465.25;30001;983;1876;-68
2021/08/16 02:16:20;;;;;;;;;;;;;;;20.03;81.87;96467.19;30001;983;1863;-67
2021/08/16 02:16:53;;;;;;;;;;;;;;;20.03;81.88;96464.44;30001;983;1871;-66
2021/08/16 02:17:24;;;;;;;;;;;;;;;20.03;81.58;96465.25;30001;982;1880;-67
2021/08/16 02:17:54;;;;;;;;;;;;;;;20.03;82.06;96461.69;30001;982;1858;-66
2021/08/16 02:18:25;;;;;;;;;;;;;;;20.04;81.88;96468.78;30001;982;1876;-66
2021/08/16 02:18:56;;;;;;;;;;;;;;;20.04;81.81;96475.09;30001;982;1876;-67
2021/08/16 02:19:27;;;;;;;;;;;;;;;20.04;81.72;96464.09;30001;982;1880;-67
2021/08/16 02:19:58;;;;;;;;;;;;;;;20.03;81.83;96462.47;30001;982;1876;-67
2021/08/16 02:20:28;;;;;;;;;;;;;;;20.04;81.97;96475.09;30001;983;1880;-66
2021/08/16 02:20:59;;;;;;;;;;;;;;;20.04;81.46;96469.59;30001;983;1875;-66
2021/08/16 02:21:30;;;;;;;;;;;;;;;20.05;81.72;96473.13;30001;983;1880;-66
2021/08/16 02:22:01;;;;;;;;;;;;;;;20.04;81.63;96477.84;30001;983;1875;-66
2021/08/16 02:22:35;;;;;;;;;;;;;;;20.05;81.97;96475.91;30001;983;1880;-66
2021/08/16 02:23:06;;;;;;;;;;;;;;;20.04;81.83;96479.81;30001;983;1858;-66
2021/08/16 02:23:37;;;;;;;;;;;;;;;20.01;81.58;96475.81;30001;983;1875;-66
2021/08/16 02:24:08;;;;;;;;;;;;;;;20.00;81.76;96474.22;30001;983;1876;-65
2021/08/16 02:24:40;;;;;;;;;;;;;;;19.99;81.60;96478.13;30001;982;1881;-66
2021/08/16 02:25:12;;;;;;;;;;;;;;;20.00;81.53;96479.72;30001;982;1876;-65
2021/08/16 02:25:43;;;;;;;;;;;;;;;19.99;81.84;96477.34;30001;982;1881;-67
2021/08/16 02:26:14;;;;;;;;;;;;;;;19.98;81.69;96476.53;30001;982;1876;-67
2021/08/16 02:26:45;;;;;;;;;;;;;;;19.97;81.65;96474.94;30001;982;1863;-65
2021/08/16 02:27:16;;;;;;;;;;;;;;;19.98;81.63;96475.75;30001;982;1872;-65
2021/08/16 02:27:48;;;;;;;;;;;;;;;19.98;81.65;96475.75;30001;982;1881;-66
2021/08/16 02:28:19;;;;;;;;;;;;;;;19.96;81.66;96478.88;30001;983;1875;-67
2021/08/16 02:28:49;;;;;;;;;;;;;;;19.96;81.42;96478.88;30001;983;1880;-66
2021/08/16 02:29:20;;;;;;;;;;;;;;;19.95;81.57;96477.28;30001;983;1875;-68
2021/08/16 02:29:51;;;;;;;;;;;;;;;19.94;81.75;96483.94;30001;983;1862;-68
2021/08/16 02:30:22;;;;;;;;;;;;;;;19.94;81.89;96481.19;30001;983;1871;-67
2021/08/16 02:30:54;;;;;;;;;;;;;;;19.94;81.59;96483.94;30001;983;1880;-66
2021/08/16 02:31:25;;;;;;;;;;;;;;;19.94;81.54;96486.69;30001;983;1876;-66
2021/08/16 02:31:56;;;;;;;;;;;;;;;19.93;81.64;96493.34;30001;983;1880;-66
2021/08/16 02:32:27;;;;;;;;;;;;;;;19.93;81.81;96489.81;30001;982;1876;-64
2021/08/16 02:32:58;;;;;;;;;;;;;;;19.91;81.87;96487.41;30001;982;1862;-66
2021/08/16 02:33:29;;;;;;;;;;;;;;;19.90;82.20;96483.06;30001;982;1872;-66
2021/08/16 02:34:00;;;;;;;;;;;;;;;19.89;82.04;96495.25;30001;982;1880;-66
2021/08/16 02:34:30;;;;;;;;;;;;;;;19.88;82.19;96488.13;30001;982;1876;-66
2021/08/16 02:35:03;;;;;;;;;;;;;;;19.93;81.88;96498.88;30001;982;1881;-67
2021/08/16 02:35:34;;;;;;;;;;;;;;;19.93;81.86;96489.81;30001;983;1875;-65
2021/08/16 02:36:05;;;;;;;;;;;;;;;19.92;82.03;96500.03;30001;983;1880;-65
2021/08/16 02:36:36;;;;;;;;;;;;;;;19.90;81.65;96496.81;30001;983;1858;-67
2021/08/16 02:37:07;;;;;;;;;;;;;;;19.89;81.82;96498.00;30001;983;1858;-67
2021/08/16 02:37:39;;;;;;;;;;;;;;;19.90;81.59;96496.81;30001;983;1876;-68
2021/08/16 02:38:10;;;;;;;;;;;;;;;19.89;81.15;96500.75;30001;983;1880;-68
2021/08/16 02:38:41;;;;;;;;;;;;;;;19.86;81.35;96506.97;30001;983;1859;-67
2021/08/16 02:39:12;;;;;;;;;;;;;;;19.85;81.33;96502.63;30001;983;1876;-67
2021/08/16 02:39:43;;;;;;;;;;;;;;;19.86;81.33;96504.22;30001;983;1876;-67
2021/08/16 02:40:14;;;;;;;;;;;;;;;19.86;80.98;96511.69;30001;982;1880;-66
2021/08/16 02:40:45;;;;;;;;;;;;;;;19.84;81.25;96503.78;30001;982;1876;-70
2021/08/16 02:41:17;;;;;;;;;;;;;;;19.83;81.07;96509.66;30001;982;1880;-67
2021/08/16 02:41:48;;;;;;;;;;;;;;;19.80;80.95;96508.41;30001;982;1877;-67
2021/08/16 02:42:18;;;;;;;;;;;;;;;19.81;80.32;96510.00;30001;982;1881;-67
2021/08/16 02:42:49;;;;;;;;;;;;;;;19.80;80.73;96507.63;30001;983;1876;-67
2021/08/16 02:43:20;;;;;;;;;;;;;;;19.79;80.67;96511.53;30001;983;1880;-66
2021/08/16 02:43:51;;;;;;;;;;;;;;;19.75;80.90;96517.75;30001;983;1751;-65
2021/08/16 02:44:22;;;;;;;;;;;;;;;19.71;81.27;96513.34;30001;983;1875;-67
2021/08/16 02:44:53;;;;;;;;;;;;;;;19.69;81.42;96510.16;30001;983;1875;-57
2021/08/16 02:45:25;;;;;;;;;;;;;;;19.68;81.04;96511.31;30001;983;1880;-67
2021/08/16 02:45:56;;;;;;;;;;;;;;;19.68;81.07;96508.56;30001;983;1876;-67
2021/08/16 02:46:32;;;;;;;;;;;;;;;19.67;80.79;96512.47;30001;983;1880;-66
2021/08/16 02:47:03;;;;;;;;;;;;;;;19.66;81.01;96513.62;30001;983;1858;-65
2021/08/16 02:47:34;;;;;;;;;;;;;;;19.66;80.44;96513.62;30001;982;1876;-68